Time;durP1;ratioP1;P1;durP2;ratioP2;P2;SDS_P1;SDS_P2;PMS_P1;PMS_P2;Temp;Humidity;BMP_temperature;BMP_pressure;BME280_temperature;BME280_humidity;BME280_pressure;Samples;Min_cycle;Max_cycle;Signal;HPM_P1;HPM_P2
2022/05/31 00:02:19;;;;;;;105.32;56.17;;;15.90;99.90;;;;;;5032035;28;20099;-74
2022/05/31 00:04:47;;;;;;;103.38;57.55;;;15.90;99.90;;;;;;5033772;28;20045;-74
2022/05/31 00:07:15;;;;;;;99.90;55.38;;;15.90;99.90;;;;;;5033742;28;20055;-74
2022/05/31 00:09:43;;;;;;;104.43;55.90;;;15.90;99.90;;;;;;5033871;28;20037;-73
2022/05/31 00:12:11;;;;;;;99.95;55.90;;;15.90;99.90;;;;;;5033567;28;20048;-75
2022/05/31 00:14:39;;;;;;;109.47;58.63;;;15.90;99.90;;;;;;5033511;28;20175;-74
2022/05/31 00:17:07;;;;;;;104.38;55.80;;;15.90;99.90;;;;;;5032765;28;20099;-73
2022/05/31 00:19:34;;;;;;;107.75;56.30;;;15.90;99.90;;;;;;5033429;28;20038;-73
2022/05/31 00:22:08;;;;;;;104.03;55.35;;;16.00;99.90;;;;;;5033583;28;20040;-73
2022/05/31 00:24:35;;;;;;;103.95;56.38;;;16.10;99.90;;;;;;5032276;28;20076;-74
2022/05/31 00:27:04;;;;;;;104.88;55.97;;;16.10;99.90;;;;;;5033379;28;20546;-75
2022/05/31 00:29:31;;;;;;;106.28;57.78;;;16.10;99.90;;;;;;5033357;28;20044;-74
2022/05/31 00:32:01;;;;;;;103.95;56.35;;;16.10;99.90;;;;;;5031669;28;20091;-74
2022/05/31 00:34:29;;;;;;;108.43;57.05;;;16.10;99.90;;;;;;5031901;28;20053;-74
2022/05/31 00:36:57;;;;;;;102.68;56.85;;;16.10;99.90;;;;;;5032065;28;20073;-75
2022/05/31 00:39:26;;;;;;;110.25;57.28;;;16.10;99.90;;;;;;5032029;28;20572;-74
2022/05/31 00:42:02;;;;;;;115.72;60.00;;;16.10;99.90;;;;;;5032262;28;20133;-74
2022/05/31 00:44:29;;;;;;;;;;;16.10;99.90;;;;;;5033849;28;20065;-74
2022/05/31 00:46:59;;;;;;;108.15;57.53;;;16.10;99.90;;;;;;5032624;28;19921;-75
2022/05/31 00:49:32;;;;;;;103.70;56.25;;;16.10;99.90;;;;;;5033537;28;20045;-75
2022/05/31 00:52:03;;;;;;;103.38;56.88;;;16.10;99.90;;;;;;5032118;28;20119;-74
2022/05/31 00:54:37;;;;;;;102.82;54.42;;;16.10;99.90;;;;;;5033103;28;20454;-74
2022/05/31 00:57:04;;;;;;;90.28;51.30;;;16.10;99.90;;;;;;5033237;28;20091;-73
2022/05/31 00:59:37;;;;;;;90.30;51.83;;;16.10;99.90;;;;;;5034234;28;20096;-73
2022/05/31 01:02:06;;;;;;;91.10;51.88;;;16.00;99.90;;;;;;5033146;28;20116;-74
2022/05/31 01:04:38;;;;;;;80.90;49.03;;;16.00;99.90;;;;;;5033286;28;20045;-74
2022/05/31 01:07:06;;;;;;;78.20;46.92;;;16.00;99.90;;;;;;5032232;28;20045;-73
2022/05/31 01:09:36;;;;;;;75.63;44.10;;;15.90;99.90;;;;;;5031853;28;20519;-73
2022/05/31 01:12:23;;;;;;;65.82;43.35;;;15.80;99.90;;;;;;5033231;28;20052;-74
2022/05/31 01:15:26;;;;;;;72.35;43.72;;;15.80;99.90;;;;;;5010898;28;20049;-74
2022/05/31 01:18:11;;;;;;;72.85;44.53;;;15.70;99.90;;;;;;5029624;28;20060;-73
2022/05/31 01:21:00;;;;;;;61.38;42.53;;;15.70;99.90;;;;;;5033447;28;20179;-74
2022/05/31 01:23:50;;;;;;;73.30;44.15;;;15.60;99.90;;;;;;5031437;28;20432;-73
2022/05/31 01:26:24;;;;;;;71.47;45.90;;;15.50;99.90;;;;;;5032873;28;20056;-74
2022/05/31 01:28:59;;;;;;;80.65;52.15;;;15.50;99.90;;;;;;5031533;28;20111;-73
2022/05/31 01:31:33;;;;;;;75.80;44.88;;;15.40;99.90;;;;;;5032418;28;20041;-74
2022/05/31 01:34:04;;;;;;;65.53;43.85;;;15.40;99.90;;;;;;5031463;28;20052;-74
2022/05/31 01:36:39;;;;;;;68.85;45.60;;;15.30;99.90;;;;;;5033222;28;20400;-74
2022/05/31 01:39:08;;;;;;;67.43;45.17;;;15.20;99.90;;;;;;5031241;28;20049;-74
2022/05/31 01:41:42;;;;;;;71.60;47.15;;;15.10;99.90;;;;;;5032767;28;20072;-74
2022/05/31 01:44:15;;;;;;;110.82;75.80;;;15.10;99.90;;;;;;5031375;28;20050;-73
2022/05/31 01:46:43;;;;;;;71.40;46.50;;;15.10;99.90;;;;;;5031385;28;20531;-73
2022/05/31 01:49:14;;;;;;;72.82;44.53;;;15.10;99.90;;;;;;5031414;28;20057;-73
2022/05/31 01:51:45;;;;;;;67.32;43.20;;;15.10;99.90;;;;;;5032433;28;20053;-73
2022/05/31 01:54:15;;;;;;;61.08;39.28;;;15.10;99.90;;;;;;5030802;28;20045;-73
2022/05/31 01:56:46;;;;;;;60.50;40.47;;;15.10;99.90;;;;;;5031681;28;20224;-73
2022/05/31 01:59:16;;;;;;;63.85;41.10;;;15.10;99.90;;;;;;5035062;28;20046;-73
2022/05/31 02:01:44;;;;;;;56.30;39.72;;;15.10;99.90;;;;;;5034893;28;20420;-73
2022/05/31 02:04:14;;;;;;;54.10;37.03;;;15.10;99.90;;;;;;5034392;28;20076;-73
2022/05/31 02:06:44;;;;;;;55.95;36.35;;;15.00;99.90;;;;;;5034524;28;20054;-74
2022/05/31 02:09:13;;;;;;;56.95;37.08;;;15.00;99.90;;;;;;5036117;28;20103;-73
2022/05/31 02:11:42;;;;;;;52.45;35.50;;;15.00;99.90;;;;;;5034838;28;20436;-73
2022/05/31 02:14:17;;;;;;;52.63;36.47;;;15.00;99.90;;;;;;5034361;28;20512;-74
2022/05/31 02:16:44;;;;;;;51.03;33.85;;;15.00;99.90;;;;;;5029037;28;20041;-73
2022/05/31 02:19:48;;;;;;;47.05;31.98;;;15.00;99.90;;;;;;5027076;28;20055;-73
2022/05/31 02:22:27;;;;;;;53.00;32.25;;;14.90;99.90;;;;;;5034575;28;20055;-76
2022/05/31 02:24:54;;;;;;;45.78;32.15;;;14.90;99.90;;;;;;5034491;28;20512;-73
2022/05/31 02:27:22;;;;;;;49.88;31.00;;;14.90;99.90;;;;;;5034451;28;20053;-74
2022/05/31 02:29:50;;;;;;;47.63;31.33;;;14.90;99.90;;;;;;5034720;28;20068;-73
2022/05/31 02:32:17;;;;;;;35.20;26.13;;;14.80;99.90;;;;;;5034308;28;20492;-73
2022/05/31 02:34:47;;;;;;;36.88;26.42;;;14.90;99.90;;;;;;5033848;28;20045;-73
2022/05/31 02:37:17;;;;;;;35.38;24.60;;;14.80;99.90;;;;;;5034196;28;20045;-73
2022/05/31 02:39:46;;;;;;;35.40;25.48;;;14.70;99.90;;;;;;5034139;28;20046;-73
2022/05/31 02:42:15;;;;;;;36.75;26.45;;;14.70;99.90;;;;;;5034190;28;20041;-74
2022/05/31 02:44:42;;;;;;;36.10;25.65;;;14.80;99.90;;;;;;5033829;28;20084;-73
2022/05/31 02:47:10;;;;;;;37.55;25.08;;;14.70;99.90;;;;;;5034438;28;20416;-73
2022/05/31 02:49:39;;;;;;;34.17;25.85;;;14.70;99.90;;;;;;5035142;28;20049;-73
2022/05/31 02:52:07;;;;;;;32.38;25.42;;;14.60;99.90;;;;;;5036517;28;20042;-73
2022/05/31 02:54:34;;;;;;;33.97;25.02;;;14.60;99.90;;;;;;5034717;28;20046;-74
2022/05/31 02:57:38;;;;;;;36.45;24.23;;;14.60;99.90;;;;;;5013810;28;20141;-73
2022/05/31 03:00:24;;;;;;;33.35;23.45;;;14.60;99.90;;;;;;5033468;28;20084;-74
2022/05/31 03:03:10;;;;;;;29.83;23.85;;;14.60;99.90;;;;;;5034608;28;20180;-74
2022/05/31 03:05:56;;;;;;;31.88;22.85;;;14.60;99.90;;;;;;5034843;28;20059;-73
2022/05/31 03:08:43;;;;;;;28.23;22.88;;;14.60;99.90;;;;;;5033885;28;20049;-73
2022/05/31 03:11:22;;;;;;;30.85;21.63;;;14.60;99.90;;;;;;5033504;28;20411;-73
2022/05/31 03:13:55;;;;;;;24.27;20.25;;;14.60;99.90;;;;;;5033543;28;20052;-73
2022/05/31 03:16:23;;;;;;;24.80;19.25;;;14.60;99.90;;;;;;5033123;28;20042;-73
2022/05/31 03:18:55;;;;;;;24.70;19.83;;;14.50;99.90;;;;;;5034579;28;20045;-74
2022/05/31 03:21:25;;;;;;;30.33;21.08;;;14.50;99.90;;;;;;5033522;28;20041;-73
2022/05/31 03:23:57;;;;;;;27.17;20.02;;;14.50;99.90;;;;;;5033319;28;20041;-73
2022/05/31 03:26:29;;;;;;;24.70;19.08;;;14.50;99.90;;;;;;5034744;28;20592;-73
2022/05/31 03:28:59;;;;;;;24.63;19.52;;;14.60;99.90;;;;;;5034475;28;20029;-73
2022/05/31 03:31:26;;;;;;;21.52;18.05;;;14.60;99.90;;;;;;5034630;28;20777;-73
2022/05/31 03:33:53;;;;;;;21.02;17.38;;;14.70;99.90;;;;;;5034202;28;20091;-73
2022/05/31 03:36:21;;;;;;;21.35;17.60;;;14.70;99.90;;;;;;5033202;28;20120;-74
2022/05/31 03:39:00;;;;;;;19.02;16.42;;;14.70;99.90;;;;;;5033364;28;20053;-74
2022/05/31 03:41:28;;;;;;;20.70;16.45;;;14.70;99.90;;;;;;5033335;28;20046;-73
2022/05/31 03:43:56;;;;;;;22.77;15.98;;;14.80;99.90;;;;;;5032273;28;20041;-73
2022/05/31 03:46:26;;;;;;;22.23;15.90;;;14.70;99.90;;;;;;5033854;28;20060;-73
2022/05/31 03:49:11;;;;;;;20.27;15.30;;;14.70;99.90;;;;;;5034506;28;20056;-73
2022/05/31 03:51:52;;;;;;;20.33;15.68;;;14.70;99.90;;;;;;5034176;28;20083;-73
2022/05/31 03:54:45;;;;;;;18.13;14.82;;;14.80;99.90;;;;;;5030853;28;20084;-73
2022/05/31 03:57:18;;;;;;;19.65;15.98;;;14.80;99.90;;;;;;5033660;28;20111;-73
2022/05/31 03:59:52;;;;;;;17.25;14.80;;;14.80;99.90;;;;;;5032975;28;20053;-73
2022/05/31 04:02:24;;;;;;;18.70;15.20;;;14.90;99.90;;;;;;5032890;28;20037;-73
2022/05/31 04:04:51;;;;;;;18.17;15.07;;;14.90;99.90;;;;;;5032871;28;20049;-73
2022/05/31 04:07:18;;;;;;;16.38;14.20;;;15.00;99.90;;;;;;5033000;28;20052;-73
2022/05/31 04:09:45;;;;;;;18.27;13.63;;;15.00;99.90;;;;;;5032616;28;20095;-74
2022/05/31 04:12:13;;;;;;;15.32;13.40;;;15.00;99.90;;;;;;5032383;28;20048;-73
2022/05/31 04:14:59;;;;;;;16.95;13.93;;;15.00;99.90;;;;;;5034223;28;20135;-73
2022/05/31 04:17:28;;;;;;;19.77;13.93;;;15.00;99.90;;;;;;5012834;28;20140;-73
2022/05/31 04:19:55;;;;;;;14.82;13.32;;;15.00;99.90;;;;;;5014035;28;20128;-73
2022/05/31 04:22:23;;;;;;;14.02;12.63;;;15.10;99.90;;;;;;5013398;28;20058;-73
2022/05/31 04:25:00;;;;;;;15.25;12.40;;;15.10;99.90;;;;;;5014530;28;20057;-73
2022/05/31 04:27:56;;;;;;;15.05;12.38;;;15.10;99.90;;;;;;5001474;28;20195;-73
2022/05/31 04:30:44;;;;;;;15.33;12.50;;;15.10;99.90;;;;;;5033865;28;20055;-73
2022/05/31 04:33:31;;;;;;;13.50;11.82;;;15.10;99.90;;;;;;5033846;28;20048;-73
2022/05/31 04:35:59;;;;;;;15.38;13.23;;;15.20;99.90;;;;;;5032165;28;20463;-73
2022/05/31 04:38:28;;;;;;;16.40;11.50;;;15.30;99.90;;;;;;5032331;28;20053;-73
2022/05/31 04:40:59;;;;;;;15.50;10.98;;;15.40;99.90;;;;;;5031695;28;20053;-74
2022/05/31 04:43:56;;;;;;;13.15;10.65;;;15.50;99.90;;;;;;5031969;28;20361;-73
2022/05/31 04:46:32;;;;;;;14.63;10.88;;;15.70;99.90;;;;;;5031724;28;20428;-74
2022/05/31 04:49:10;;;;;;;13.52;10.73;;;15.80;99.90;;;;;;5032037;28;20080;-75
2022/05/31 04:51:38;;;;;;;12.07;10.30;;;16.00;99.90;;;;;;5031990;28;20412;-74
2022/05/31 04:54:08;;;;;;;14.93;11.95;;;15.90;99.90;;;;;;5031714;28;20119;-74
2022/05/31 04:57:01;;;;;;;14.68;11.90;;;15.90;99.90;;;;;;5027361;28;20480;-74
2022/05/31 04:59:30;;;;;;;15.00;10.90;;;15.60;99.90;;;;;;5031675;28;20627;-72
2022/05/31 05:01:57;;;;;;;12.77;10.65;;;15.60;99.90;;;;;;5033527;28;20125;-80
2022/05/31 05:04:39;;;;;;;14.80;11.13;;;15.70;99.90;;;;;;5035782;28;20416;-78
2022/05/31 05:07:06;;;;;;;14.05;10.70;;;15.80;99.90;;;;;;5066713;22;20388;-76
2022/05/31 05:09:36;;;;;;;15.68;12.43;;;15.80;99.90;;;;;;5053543;28;20053;-74
2022/05/31 05:12:22;;;;;;;15.52;12.75;;;15.80;99.90;;;;;;5057889;28;20112;-75
2022/05/31 05:14:56;;;;;;;15.05;12.95;;;15.80;99.90;;;;;;5052974;28;20045;-75
2022/05/31 05:17:25;;;;;;;14.88;11.75;;;15.80;99.90;;;;;;5052763;28;20396;-75
2022/05/31 05:19:54;;;;;;;13.23;11.40;;;15.90;99.90;;;;;;5052632;28;20157;-74
2022/05/31 05:22:22;;;;;;;19.42;13.38;;;15.80;99.90;;;;;;5052221;28;20036;-75
2022/05/31 05:24:51;;;;;;;17.80;12.82;;;15.70;99.90;;;;;;5053659;28;20389;-76
2022/05/31 05:27:24;;;;;;;17.23;13.90;;;15.70;99.90;;;;;;5054566;28;20056;-76
2022/05/31 05:32:42;;;;;;;21.45;17.33;;;15.50;99.90;;;;;;5052727;28;20049;-75
2022/05/31 05:35:17;;;;;;;21.23;15.80;;;15.50;99.90;;;;;;5056246;28;20053;-75
2022/05/31 05:37:55;;;;;;;23.15;15.50;;;15.50;99.90;;;;;;5056598;28;20053;-76
2022/05/31 05:40:30;;;;;;;23.02;15.77;;;15.50;99.90;;;;;;5056394;28;20131;-75
2022/05/31 05:43:17;;;;;;;17.95;15.95;;;15.50;99.90;;;;;;5056217;28;20064;-76
2022/05/31 05:45:57;;;;;;;22.42;17.83;;;15.50;99.90;;;;;;5057333;28;20044;-76
2022/05/31 05:48:24;;;;;;;23.58;17.52;;;15.50;99.90;;;;;;5055923;28;20057;-76
2022/05/31 05:50:53;;;;;;;21.55;16.05;;;15.50;99.90;;;;;;5057449;28;20099;-75
2022/05/31 05:53:39;;;;;;;19.98;15.18;;;15.50;99.90;;;;;;5057113;28;20049;-75
2022/05/31 05:56:26;;;;;;;21.15;16.20;;;15.30;99.90;;;;;;5057526;28;20126;-75
2022/05/31 05:59:11;;;;;;;22.55;17.17;;;15.10;99.90;;;;;;5057964;28;20101;-75
2022/05/31 06:02:04;;;;;;;28.75;19.23;;;15.00;99.90;;;;;;5046074;28;20045;-76
2022/05/31 06:05:03;;;;;;;25.60;19.42;;;14.90;99.90;;;;;;5057104;28;20533;-75
2022/05/31 06:07:35;;;;;;;29.95;23.40;;;14.80;99.90;;;;;;5055958;28;20448;-74
2022/05/31 06:10:09;;;;;;;31.42;24.13;;;14.80;99.90;;;;;;5055633;28;20397;-75
2022/05/31 06:12:44;;;;;;;32.90;26.98;;;14.80;99.90;;;;;;5055782;28;20040;-76
2022/05/31 06:15:17;;;;;;;36.73;27.77;;;14.90;99.90;;;;;;5057793;28;20546;-76
2022/05/31 06:17:47;;;;;;;35.97;26.13;;;14.90;99.90;;;;;;5057041;28;20080;-76
2022/05/31 06:20:16;;;;;;;34.15;28.88;;;14.90;99.90;;;;;;5055544;28;20049;-75
2022/05/31 06:22:45;;;;;;;36.90;29.98;;;15.00;99.90;;;;;;5055179;28;20411;-75
2022/05/31 06:25:21;;;;;;;38.95;31.30;;;15.00;99.90;;;;;;5054828;28;20508;-75
2022/05/31 06:28:09;;;;;;;39.38;29.33;;;15.00;99.90;;;;;;5064019;28;20072;-76
2022/05/31 06:30:36;;;;;;;33.33;27.38;;;15.10;99.90;;;;;;5066223;28;20059;-75
2022/05/31 06:33:04;;;;;;;33.33;27.48;;;15.10;99.90;;;;;;5067717;28;20079;-74
2022/05/31 06:35:32;;;;;;;35.22;28.17;;;15.20;99.90;;;;;;5056588;28;20041;-74
2022/05/31 06:38:03;;;;;;;28.45;23.40;;;15.20;99.90;;;;;;5054625;28;20051;-75
2022/05/31 06:40:31;;;;;;;27.48;22.55;;;15.20;99.90;;;;;;5054558;28;20419;-75
2022/05/31 06:43:07;;;;;;;;;;;15.10;99.90;;;;;;5056027;28;20492;-75
2022/05/31 06:46:04;;;;;;;43.03;24.48;;;15.00;99.90;;;;;;5047232;28;20011;-76
2022/05/31 06:48:31;;;;;;;39.42;23.73;;;14.90;99.90;;;;;;5056500;28;20084;-75
2022/05/31 06:57:45;;;;;;;37.75;22.85;;;14.60;99.90;;;;;;5066670;28;20052;-75
2022/05/31 07:00:32;;;;;;;40.30;23.98;;;14.50;99.90;;;;;;5066662;28;20044;-76
2022/05/31 07:02:59;;;;;;;42.72;26.00;;;14.40;99.90;;;;;;5065794;28;20112;-76
2022/05/31 07:05:35;;;;;;;48.70;27.65;;;14.40;99.90;;;;;;5068415;28;20067;-75
2022/05/31 07:08:04;;;;;;;46.45;28.65;;;14.40;99.90;;;;;;5062732;28;20113;-76
2022/05/31 07:10:58;;;;;;;49.67;29.40;;;14.50;99.90;;;;;;5048011;28;20088;-76
2022/05/31 07:13:44;;;;;;;48.58;31.08;;;14.40;99.90;;;;;;5055932;28;20071;-75
2022/05/31 07:16:50;;;;;;;50.47;28.45;;;14.50;99.90;;;;;;5034591;28;20038;-76
2022/05/31 07:19:37;;;;;;;52.90;30.65;;;14.70;99.90;;;;;;5018066;28;20200;-75
2022/05/31 07:22:04;;;;;;;43.50;27.50;;;14.80;99.90;;;;;;5046950;28;20056;-76
2022/05/31 07:24:36;;;;;;;52.25;27.42;;;14.90;99.90;;;;;;5054377;28;20041;-76
2022/05/31 07:27:21;;;;;;;52.53;29.15;;;15.00;99.90;;;;;;5054787;28;20044;-75
2022/05/31 07:29:51;;;;;;;50.50;27.50;;;15.10;99.90;;;;;;5055005;28;20057;-77
2022/05/31 07:32:18;;;;;;;50.35;28.83;;;15.20;99.90;;;;;;5056176;28;20045;-75
2022/05/31 07:34:46;;;;;;;50.25;29.45;;;15.20;99.90;;;;;;5056183;28;20162;-76
2022/05/31 07:37:14;;;;;;;53.28;28.60;;;15.40;99.90;;;;;;5056547;28;20041;-76
2022/05/31 07:39:43;;;;;;;60.72;29.52;;;15.40;99.90;;;;;;5057700;28;20045;-76
2022/05/31 07:42:11;;;;;;;63.28;34.05;;;15.60;99.90;;;;;;5066376;28;20068;-76
2022/05/31 07:44:45;;;;;;;64.50;34.70;;;16.00;99.90;;;;;;5067042;28;20451;-77
2022/05/31 07:47:12;;;;;;;61.67;32.50;;;16.50;99.90;;;;;;5071469;28;20045;-77
2022/05/31 07:49:40;;;;;;;72.10;43.00;;;16.80;99.90;;;;;;5068092;28;20416;-76
2022/05/31 07:52:40;;;;;;;85.00;53.15;;;17.20;99.90;;;;;;5060588;28;20052;-75
2022/05/31 07:55:28;;;;;;;60.55;32.20;;;17.60;99.90;;;;;;5066401;28;20096;-76
2022/05/31 07:58:32;;;;;;;60.15;33.40;;;17.60;99.90;;;;;;5076912;28;20075;-75
2022/05/31 08:01:22;;;;;;;54.70;32.80;;;17.90;99.90;;;;;;5078058;28;20063;-75
2022/05/31 08:03:51;;;;;;;50.75;31.70;;;18.30;99.90;;;;;;5076117;28;20025;-77
2022/05/31 08:06:20;;;;;;;42.58;26.63;;;18.50;99.90;;;;;;5072120;28;20052;-76
2022/05/31 08:08:48;;;;;;;40.47;24.88;;;18.70;99.90;;;;;;5056287;28;20071;-76
2022/05/31 08:11:18;;;;;;;41.92;24.00;;;18.70;99.90;;;;;;5055530;28;20052;-75
2022/05/31 08:13:46;;;;;;;39.83;25.73;;;18.70;99.90;;;;;;5056024;28;20045;-76
2022/05/31 08:16:16;;;;;;;42.72;26.05;;;18.70;99.90;;;;;;5055851;28;20043;-76
2022/05/31 08:18:45;;;;;;;38.22;23.90;;;18.80;99.90;;;;;;5055006;28;20068;-76
2022/05/31 08:21:17;;;;;;;34.83;21.27;;;19.00;99.90;;;;;;5055166;28;20043;-76
2022/05/31 08:23:45;;;;;;;33.40;21.63;;;19.00;99.90;;;;;;5054131;28;20120;-76
2022/05/31 08:26:13;;;;;;;30.42;21.38;;;19.10;99.90;;;;;;5054300;28;20102;-76
2022/05/31 08:28:40;;;;;;;25.55;17.88;;;19.50;99.90;;;;;;5054150;28;20045;-76
2022/05/31 08:31:11;;;;;;;30.08;18.70;;;19.90;99.90;;;;;;5054419;28;20075;-75
2022/05/31 08:33:39;;;;;;;26.42;19.73;;;20.10;99.90;;;;;;5053921;28;20047;-75
2022/05/31 08:36:08;;;;;;;22.05;14.77;;;20.20;99.90;;;;;;5053892;28;20106;-75
2022/05/31 08:38:36;;;;;;;26.83;17.15;;;20.10;99.90;;;;;;5054096;28;20078;-75
2022/05/31 08:41:25;;;;;;;25.35;15.75;;;19.80;99.90;;;;;;5054355;28;20068;-76
2022/05/31 08:44:04;;;;;;;16.70;11.52;;;19.90;99.90;;;;;;5054098;28;20136;-76
2022/05/31 08:46:52;;;;;;;20.80;13.65;;;19.80;99.90;;;;;;5054291;28;20068;-76
2022/05/31 08:51:52;;;;;;;15.38;10.52;;;19.80;99.90;;;;;;5055245;28;20118;-75
2022/05/31 08:52:19;;;;;;;19.10;13.63;;;19.70;99.90;;;;;;5057539;28;20064;-76
2022/05/31 08:57:35;;;;;;;;;;;20.00;99.90;;;;;;5056927;28;20045;-76
2022/05/31 09:00:07;;;;;;;16.10;11.98;;;19.80;99.90;;;;;;5054719;28;19924;-75
2022/05/31 09:02:38;;;;;;;19.25;13.07;;;19.90;99.90;;;;;;5053314;28;20492;-74
2022/05/31 09:05:09;;;;;;;21.05;14.05;;;19.70;99.90;;;;;;5052711;28;20045;-75
2022/05/31 09:07:43;;;;;;;17.45;12.85;;;19.70;99.90;;;;;;5058062;28;20107;-76
2022/05/31 09:10:20;;;;;;;20.17;13.70;;;20.00;99.90;;;;;;5058925;28;20094;-77
2022/05/31 09:12:54;;;;;;;14.02;10.30;;;20.30;99.90;;;;;;5058343;28;20411;-75
2022/05/31 09:15:27;;;;;;;15.93;10.38;;;20.30;99.90;;;;;;5056686;28;20049;-77
2022/05/31 09:18:04;;;;;;;12.85;9.80;;;20.60;99.90;;;;;;5058546;28;20044;-76
2022/05/31 09:20:37;;;;;;;11.85;8.65;;;20.70;99.90;;;;;;5058899;28;20569;-75
2022/05/31 09:23:06;;;;;;;13.45;9.18;;;20.70;99.90;;;;;;5060857;28;20047;-75
2022/05/31 09:25:39;;;;;;;13.15;9.30;;;20.70;99.90;;;;;;5061584;28;20412;-75
2022/05/31 09:28:22;;;;;;;14.40;8.85;;;20.70;99.90;;;;;;5062067;28;20076;-75
2022/05/31 09:30:50;;;;;;;11.77;9.55;;;20.60;99.90;;;;;;5062127;28;20041;-75
2022/05/31 09:33:24;;;;;;;11.85;10.43;;;20.90;99.90;;;;;;5064637;28;20049;-76
2022/05/31 09:36:03;;;;;;;13.40;8.73;;;20.80;99.90;;;;;;5061031;28;20037;-76
2022/05/31 09:38:55;;;;;;;10.27;8.60;;;20.80;99.90;;;;;;5058811;28;20044;-76
2022/05/31 09:41:27;;;;;;;11.15;9.13;;;21.20;99.90;;;;;;5060339;28;20087;-77
2022/05/31 09:44:03;;;;;;;9.60;8.00;;;21.50;99.90;;;;;;5058194;28;20091;-76
2022/05/31 09:46:36;;;;;;;10.57;8.73;;;21.50;99.90;;;;;;5072947;28;20025;-75
2022/05/31 09:49:16;;;;;;;8.57;7.55;;;21.60;99.90;;;;;;5065160;28;20052;-76
2022/05/31 09:51:45;;;;;;;9.75;7.75;;;21.50;99.90;;;;;;5059012;28;20041;-76
2022/05/31 09:57:20;;;;;;;9.90;7.40;;;21.30;99.90;;;;;;5058889;28;20060;-75
2022/05/31 10:00:17;;;;;;;10.52;7.90;;;21.60;99.90;;;;;;5047797;28;20053;-76
2022/05/31 10:03:04;;;;;;;8.95;7.10;;;22.00;99.90;;;;;;5057585;28;20139;-76
2022/05/31 10:05:31;;;;;;;7.50;5.90;;;22.20;99.90;;;;;;5057004;28;20484;-76
2022/05/31 10:07:58;;;;;;;8.60;5.93;;;22.20;99.90;;;;;;5055982;28;20083;-76
2022/05/31 10:10:32;;;;;;;8.13;6.03;;;22.50;99.90;;;;;;5056335;28;20116;-76
2022/05/31 10:13:03;;;;;;;7.53;5.88;;;22.50;99.90;;;;;;5057475;28;20063;-76
2022/05/31 10:15:50;;;;;;;8.77;6.57;;;22.60;99.90;;;;;;5058732;28;20628;-76
2022/05/31 10:18:29;;;;;;;7.65;6.85;;;22.60;99.90;;;;;;5057257;28;20135;-76
2022/05/31 10:20:59;;;;;;;7.72;6.13;;;22.80;99.90;;;;;;5058165;28;20052;-74
2022/05/31 10:23:34;;;;;;;7.28;5.80;;;22.60;99.90;;;;;;5058657;28;20041;-75
2022/05/31 10:26:31;;;;;;;9.38;6.80;;;22.70;99.90;;;;;;5058605;28;20052;-75
2022/05/31 10:29:25;;;;;;;8.90;6.63;;;23.10;99.90;;;;;;5055159;28;20059;-77
2022/05/31 10:32:27;;;;;;;6.20;5.13;;;23.50;99.90;;;;;;5055041;28;20048;-75
2022/05/31 10:35:10;;;;;;;7.28;5.22;;;23.20;99.90;;;;;;5065514;28;20044;-75
2022/05/31 10:37:37;;;;;;;6.30;5.15;;;23.20;99.90;;;;;;5054664;28;20118;-75
2022/05/31 10:40:11;;;;;;;6.75;5.57;;;22.90;99.90;;;;;;5055806;28;20044;-76
2022/05/31 10:42:43;;;;;;;6.15;5.30;;;23.10;99.90;;;;;;5064092;28;20048;-75
2022/05/31 10:45:20;;;;;;;8.82;5.28;;;23.20;99.90;;;;;;5058406;28;20037;-75
2022/05/31 10:47:48;;;;;;;7.53;5.07;;;23.50;99.90;;;;;;5056916;28;20129;-76
2022/05/31 10:50:15;;;;;;;9.05;5.90;;;23.30;99.90;;;;;;5056529;28;20114;-75
2022/05/31 10:52:53;;;;;;;5.82;4.65;;;23.50;99.90;;;;;;5061197;28;20461;-75
2022/05/31 10:55:37;;;;;;;8.65;4.65;;;23.40;99.90;;;;;;5056775;28;20474;-76
2022/05/31 10:58:18;;;;;;;;;;;23.30;99.90;;;;;;5055300;28;20051;-76
2022/05/31 11:00:51;;;;;;;6.38;4.53;;;23.30;99.90;;;;;;5056059;28;19997;-76
2022/05/31 11:03:37;;;;;;;8.50;5.03;;;23.50;99.90;;;;;;5056987;28;20496;-77
2022/05/31 11:06:15;;;;;;;8.40;5.40;;;23.60;99.90;;;;;;5078242;22;20130;-76
2022/05/31 11:12:03;;;;;;;7.40;5.75;;;23.90;99.90;;;;;;5012691;28;20129;-77
2022/05/31 11:14:45;;;;;;;10.32;6.40;;;24.00;99.90;;;;;;5020174;28;20053;-78
2022/05/31 11:17:42;;;;;;;8.48;6.80;;;24.10;99.90;;;;;;5035964;28;20037;-78
2022/05/31 11:20:16;;;;;;;22.48;20.02;;;24.20;99.90;;;;;;5029818;28;20045;-75
2022/05/31 11:22:57;;;;;;;5.38;4.25;;;24.30;99.90;;;;;;5036108;28;20034;-77
2022/05/31 11:25:55;;;;;;;7.63;5.93;;;24.40;99.90;;;;;;5035760;28;20044;-77
2022/05/31 11:28:42;;;;;;;5.53;4.65;;;24.40;99.90;;;;;;5020763;28;20049;-78
2022/05/31 11:31:23;;;;;;;7.15;4.03;;;24.50;99.90;;;;;;5035574;28;20107;-76
2022/05/31 11:34:10;;;;;;;5.20;4.38;;;24.70;99.90;;;;;;5035278;28;20132;-76
2022/05/31 11:36:53;;;;;;;6.72;4.70;;;24.70;99.90;;;;;;5022992;28;20072;-76
2022/05/31 11:39:47;;;;;;;7.90;4.45;;;25.00;99.90;;;;;;5050424;28;20042;-76
2022/05/31 11:42:28;;;;;;;5.30;3.70;;;25.20;99.90;;;;;;5033703;28;20041;-76
2022/05/31 11:45:04;;;;;;;5.95;4.50;;;25.20;99.90;;;;;;5015778;28;20044;-76
2022/05/31 11:47:58;;;;;;;9.25;5.35;;;24.90;99.90;;;;;;5034561;28;20071;-77
2022/05/31 11:50:34;;;;;;;10.15;5.53;;;25.00;99.90;;;;;;5028794;28;20041;-76
2022/05/31 11:53:18;;;;;;;7.63;5.50;;;25.20;99.90;;;;;;5021463;28;20493;-76
2022/05/31 11:55:51;;;;;;;6.32;4.03;;;25.50;99.90;;;;;;5035532;28;20038;-75
2022/05/31 11:58:25;;;;;;;6.40;4.60;;;25.40;99.90;;;;;;5027005;28;20068;-76
2022/05/31 12:01:04;;;;;;;7.60;5.60;;;25.20;99.90;;;;;;5001348;28;20052;-76
2022/05/31 12:03:42;;;;;;;6.30;4.95;;;25.20;99.90;;;;;;5020708;28;20049;-76
2022/05/31 12:06:16;;;;;;;9.20;7.28;;;25.40;99.90;;;;;;5019739;28;20484;-76
2022/05/31 12:08:51;;;;;;;5.53;4.45;;;25.50;99.90;;;;;;5039795;28;20124;-76
2022/05/31 12:11:29;;;;;;;7.30;4.70;;;25.40;99.90;;;;;;5025659;28;20488;-77
2022/05/31 12:13:58;;;;;;;5.90;3.33;;;25.30;99.90;;;;;;5026499;28;20076;-76
2022/05/31 12:16:26;;;;;;;5.45;3.90;;;25.40;99.90;;;;;;5041131;28;20041;-76
2022/05/31 12:19:07;;;;;;;6.35;3.88;;;25.40;99.90;;;;;;5044181;28;20046;-76
2022/05/31 12:21:39;;;;;;;6.78;3.90;;;25.60;99.90;;;;;;5047978;28;20037;-76
2022/05/31 12:24:13;;;;;;;6.13;4.53;;;25.70;99.90;;;;;;5018848;28;20049;-76
2022/05/31 12:26:50;;;;;;;7.13;3.45;;;25.90;99.90;;;;;;5034268;28;20041;-76
2022/05/31 12:29:22;;;;;;;4.90;3.33;;;26.10;99.90;;;;;;5015846;28;20151;-77
2022/05/31 12:31:50;;;;;;;4.10;3.38;;;26.10;99.90;;;;;;5034793;28;20042;-76
2022/05/31 12:34:44;;;;;;;4.03;3.33;;;26.10;99.90;;;;;;5033928;28;20052;-76
2022/05/31 12:37:13;;;;;;;4.65;3.45;;;26.00;99.90;;;;;;5034835;28;20080;-77
2022/05/31 12:39:42;;;;;;;6.80;3.20;;;26.10;99.90;;;;;;5034359;28;20041;-76
2022/05/31 12:42:38;;;;;;;4.93;2.60;;;26.20;99.90;;;;;;5015650;28;20504;-76
2022/05/31 12:45:40;;;;;;;6.18;2.95;;;26.00;99.90;;;;;;5033928;28;20034;-76
2022/05/31 12:48:23;;;;;;;6.25;3.03;;;26.00;99.90;;;;;;5002511;28;20046;-76
2022/05/31 12:51:11;;;;;;;3.75;2.78;;;26.10;99.90;;;;;;5034018;28;20048;-76
2022/05/31 12:54:02;;;;;;;5.03;3.55;;;26.30;99.90;;;;;;5034292;28;20459;-75
2022/05/31 12:56:41;;;;;;;5.43;2.90;;;26.60;99.90;;;;;;5033449;28;20038;-76
2022/05/31 12:59:09;;;;;;;5.13;2.90;;;26.60;99.90;;;;;;5033552;28;20041;-76
2022/05/31 13:01:46;;;;;;;4.07;2.58;;;26.70;99.90;;;;;;5034680;28;20050;-77
2022/05/31 13:04:29;;;;;;;6.75;2.78;;;26.80;99.90;;;;;;5033943;28;20069;-76
2022/05/31 13:07:09;;;;;;;5.90;4.55;;;26.80;99.90;;;;;;5016154;28;20076;-76
2022/05/31 13:09:40;;;;;;;5.57;2.90;;;27.20;99.90;;;;;;5015634;28;20088;-74
2022/05/31 13:20:40;;;;;;;6.20;3.13;;;27.90;99.90;;;;;;5016590;28;20124;-76
2022/05/31 13:23:16;;;;;;;4.35;2.63;;;28.00;99.90;;;;;;5016769;28;20057;-76
2022/05/31 13:25:48;;;;;;;7.80;3.17;;;27.60;99.90;;;;;;5034381;28;20144;-74
2022/05/31 13:28:29;;;;;;;11.20;7.82;;;27.50;99.90;;;;;;5033893;28;20049;-75
2022/05/31 13:31:02;;;;;;;4.93;3.47;;;27.70;99.90;;;;;;5033778;28;20120;-76
2022/05/31 13:33:30;;;;;;;6.93;4.10;;;27.60;99.90;;;;;;5015610;28;20394;-76
2022/05/31 13:36:03;;;;;;;7.78;4.57;;;27.60;99.90;;;;;;5032944;28;20125;-76
2022/05/31 13:38:35;;;;;;;11.15;5.78;;;27.70;99.90;;;;;;5015541;28;20053;-76
2022/05/31 13:41:05;;;;;;;7.07;5.00;;;27.50;99.90;;;;;;5033484;28;20096;-76
2022/05/31 13:43:35;;;;;;;9.88;4.22;;;27.50;99.90;;;;;;5033307;28;20041;-75